Time;durP1;ratioP1;P1;durP2;ratioP2;P2;SDS_P1;SDS_P2;PMS_P1;PMS_P2;Temp;Humidity;BMP_temperature;BMP_pressure;BME280_temperature;BME280_humidity;BME280_pressure;Samples;Min_cycle;Max_cycle;Signal;HPM_P1;HPM_P2
2024/02/14 00:01:37;;;;;;;15.90;14.30;;;;;;;;;;5014433;28;25061;-68
2024/02/14 00:04:04;;;;;;;19.30;15.15;;;;;;;;;;5013233;28;25065;-69
2024/02/14 00:06:30;;;;;;;18.55;14.40;;;;;;;;;;5018296;28;25076;-69
2024/02/14 00:08:56;;;;;;;20.25;13.55;;;;;;;;;;5015199;28;25069;-68
2024/02/14 00:11:23;;;;;;;17.45;13.70;;;;;;;;;;5016040;28;25062;-71
2024/02/14 00:13:49;;;;;;;15.80;14.10;;;;;;;;;;5005351;28;25069;-65
2024/02/14 00:16:15;;;;;;;19.65;14.70;;;;;;;;;;5008392;28;25145;-67
2024/02/14 00:18:42;;;;;;;18.08;14.25;;;;;;;;;;5005978;28;25055;-69
2024/02/14 00:21:08;;;;;;;13.13;11.70;;;;;;;;;;5003181;28;25069;-68
2024/02/14 00:23:34;;;;;;;18.85;13.77;;;;;;;;;;5000849;28;25133;-70
2024/02/14 00:26:00;;;;;;;18.10;14.73;;;;;;;;;;5011950;28;25145;-68
2024/02/14 00:28:26;;;;;;;17.67;12.10;;;;;;;;;;5002259;28;25091;-69
2024/02/14 00:30:52;;;;;;;16.88;13.65;;;;;;;;;;5008784;28;25135;-67
2024/02/14 00:33:20;;;;;;;20.17;13.55;;;;;;;;;;5002806;28;25131;-68
2024/02/14 00:35:46;;;;;;;14.48;12.65;;;;;;;;;;5004350;28;25084;-68
2024/02/14 00:38:12;;;;;;;16.75;13.38;;;;;;;;;;5000799;28;25075;-67
2024/02/14 00:40:38;;;;;;;17.60;14.63;;;;;;;;;;5007251;28;25075;-65
2024/02/14 00:43:04;;;;;;;16.80;12.82;;;;;;;;;;5005174;28;25137;-65
2024/02/14 00:45:30;;;;;;;18.13;14.25;;;;;;;;;;5000488;28;25075;-69
2024/02/14 00:47:56;;;;;;;16.75;13.25;;;;;;;;;;5007209;28;25086;-68
2024/02/14 00:50:22;;;;;;;16.98;14.13;;;;;;;;;;5004550;28;25078;-67
2024/02/14 00:52:48;;;;;;;17.75;14.40;;;;;;;;;;4985256;28;25048;-66
2024/02/14 00:55:14;;;;;;;22.35;15.43;;;;;;;;;;5008918;28;25073;-70
2024/02/14 00:57:40;;;;;;;25.08;15.68;;;;;;;;;;5007340;28;25083;-66
2024/02/14 01:00:07;;;;;;;21.23;15.45;;;;;;;;;;5008696;28;25075;-66
2024/02/14 01:02:33;;;;;;;16.88;15.18;;;;;;;;;;5003892;28;25082;-71
2024/02/14 01:04:59;;;;;;;17.17;15.40;;;;;;;;;;5001713;28;25055;-67
2024/02/14 01:07:25;;;;;;;17.42;15.60;;;;;;;;;;5001187;28;25116;-66
2024/02/14 01:09:51;;;;;;;15.48;13.82;;;;;;;;;;4999555;28;25121;-67
2024/02/14 01:12:18;;;;;;;21.80;16.55;;;;;;;;;;5004617;28;25072;-69
2024/02/14 01:14:43;;;;;;;19.02;15.85;;;;;;;;;;5007665;28;25052;-67
2024/02/14 01:17:09;;;;;;;17.80;15.13;;;;;;;;;;5004779;28;25120;-67
2024/02/14 01:19:35;;;;;;;18.85;15.52;;;;;;;;;;5006543;28;25047;-67
2024/02/14 01:22:04;;;;;;;18.52;16.27;;;;;;;;;;5003149;28;25072;-69
2024/02/14 01:24:31;;;;;;;21.08;15.60;;;;;;;;;;5006170;28;25094;-69
2024/02/14 01:26:57;;;;;;;22.15;15.23;;;;;;;;;;4982814;28;25102;-71
2024/02/14 01:29:23;;;;;;;15.52;14.00;;;;;;;;;;4996685;28;25107;-65
2024/02/14 01:31:50;;;;;;;20.50;15.23;;;;;;;;;;4998713;28;25115;-66
2024/02/14 01:34:16;;;;;;;18.05;15.13;;;;;;;;;;4985560;28;25070;-70
2024/02/14 01:36:42;;;;;;;19.15;14.32;;;;;;;;;;5007037;28;25070;-66
2024/02/14 01:39:11;;;;;;;15.57;13.90;;;;;;;;;;4989801;28;25094;-66
2024/02/14 01:41:38;;;;;;;18.38;14.82;;;;;;;;;;5007406;28;25121;-66
2024/02/14 01:44:04;;;;;;;16.52;13.63;;;;;;;;;;5003744;28;25073;-69
2024/02/14 01:46:30;;;;;;;17.65;14.02;;;;;;;;;;5002324;28;25161;-66
2024/02/14 01:48:57;;;;;;;21.70;14.95;;;;;;;;;;4995912;28;25126;-66
2024/02/14 01:51:24;;;;;;;14.95;13.40;;;;;;;;;;5009461;28;25089;-68
2024/02/14 01:53:51;;;;;;;18.77;15.27;;;;;;;;;;4994576;28;25068;-68
2024/02/14 01:56:17;;;;;;;16.05;14.40;;;;;;;;;;5006957;28;25078;-70
2024/02/14 01:58:44;;;;;;;18.80;15.55;;;;;;;;;;5004184;28;25132;-69
2024/02/14 02:01:12;;;;;;;16.98;15.02;;;;;;;;;;5002848;28;25142;-69
2024/02/14 02:03:38;;;;;;;24.15;17.60;;;;;;;;;;5008450;28;25054;-68
2024/02/14 02:06:07;;;;;;;22.90;18.48;;;;;;;;;;5005388;28;25175;-69
2024/02/14 02:08:33;;;;;;;25.75;19.80;;;;;;;;;;4993712;28;25075;-66
2024/02/14 02:10:59;;;;;;;21.98;19.25;;;;;;;;;;5017902;28;25146;-66
2024/02/14 02:13:25;;;;;;;20.02;17.92;;;;;;;;;;5021195;28;25081;-67
2024/02/14 02:15:53;;;;;;;21.25;18.92;;;;;;;;;;5000115;28;25064;-68
2024/02/14 02:18:19;;;;;;;20.92;18.38;;;;;;;;;;5014058;28;25061;-70
2024/02/14 02:20:45;;;;;;;21.63;17.83;;;;;;;;;;5004630;28;25142;-66
2024/02/14 02:23:14;;;;;;;19.42;17.45;;;;;;;;;;5010195;28;25107;-70
2024/02/14 02:25:41;;;;;;;21.65;16.83;;;;;;;;;;5010714;28;25161;-68
2024/02/14 02:28:08;;;;;;;18.92;16.90;;;;;;;;;;5010179;28;25081;-65
2024/02/14 02:30:35;;;;;;;19.45;17.45;;;;;;;;;;4984265;28;25056;-68
2024/02/14 02:33:02;;;;;;;18.05;15.77;;;;;;;;;;5007404;28;25079;-67
2024/02/14 02:35:28;;;;;;;20.58;15.90;;;;;;;;;;5004580;28;25066;-67
2024/02/14 02:37:54;;;;;;;20.48;16.77;;;;;;;;;;5003349;28;25061;-67
2024/02/14 02:40:23;;;;;;;21.75;17.02;;;;;;;;;;4998590;28;25056;-66
2024/02/14 02:42:50;;;;;;;22.08;17.27;;;;;;;;;;5004382;28;25057;-67
2024/02/14 02:45:16;;;;;;;17.95;14.48;;;;;;;;;;5003738;28;25057;-67
2024/02/14 02:47:42;;;;;;;20.10;15.60;;;;;;;;;;5008689;28;25079;-69
2024/02/14 02:50:09;;;;;;;17.55;15.50;;;;;;;;;;5004047;28;25094;-67
2024/02/14 02:52:35;;;;;;;23.08;17.13;;;;;;;;;;5006306;28;25074;-66
2024/02/14 02:55:02;;;;;;;22.38;17.42;;;;;;;;;;5005677;28;25050;-67
2024/02/14 02:57:29;;;;;;;24.55;17.52;;;;;;;;;;5003057;28;25064;-68
2024/02/14 02:59:55;;;;;;;19.65;17.40;;;;;;;;;;5001489;28;25063;-65
2024/02/14 03:02:22;;;;;;;17.70;15.82;;;;;;;;;;5000838;28;25122;-68
2024/02/14 03:04:50;;;;;;;22.42;19.10;;;;;;;;;;4999385;28;25118;-66
2024/02/14 03:07:18;;;;;;;21.15;17.45;;;;;;;;;;5007770;28;25045;-70
2024/02/14 03:09:47;;;;;;;22.48;16.05;;;;;;;;;;5000161;28;25075;-68
2024/02/14 03:12:16;;;;;;;24.27;15.93;;;;;;;;;;5005221;28;25066;-68
2024/02/14 03:14:43;;;;;;;21.30;14.80;;;;;;;;;;4993246;28;25115;-69
2024/02/14 03:17:10;;;;;;;19.48;15.88;;;;;;;;;;5001256;28;25079;-68
2024/02/14 03:19:38;;;;;;;26.17;16.27;;;;;;;;;;4988422;28;25090;-67
2024/02/14 03:22:08;;;;;;;24.30;15.93;;;;;;;;;;5008463;28;25123;-69
2024/02/14 03:24:36;;;;;;;24.85;15.73;;;;;;;;;;4982801;28;25069;-70
2024/02/14 03:27:04;;;;;;;21.60;15.10;;;;;;;;;;5003779;28;25092;-70
2024/02/14 03:29:30;;;;;;;23.58;14.23;;;;;;;;;;5007353;28;25187;-67
2024/02/14 03:31:58;;;;;;;23.35;14.85;;;;;;;;;;4986033;28;25066;-67
2024/02/14 03:34:25;;;;;;;20.63;14.85;;;;;;;;;;4998764;28;25123;-66
2024/02/14 03:36:51;;;;;;;20.05;15.07;;;;;;;;;;5005693;28;25070;-67
2024/02/14 03:39:17;;;;;;;23.73;16.35;;;;;;;;;;4995393;28;25078;-69
2024/02/14 03:41:43;;;;;;;18.52;14.38;;;;;;;;;;5006472;28;25144;-67
2024/02/14 03:44:09;;;;;;;19.45;14.18;;;;;;;;;;5002106;28;25072;-66
2024/02/14 03:46:35;;;;;;;20.98;14.98;;;;;;;;;;4998125;28;25101;-69
2024/02/14 03:49:01;;;;;;;22.27;14.52;;;;;;;;;;5004150;28;25082;-67
2024/02/14 03:51:27;;;;;;;19.63;13.38;;;;;;;;;;5005504;28;25051;-66
2024/02/14 03:53:53;;;;;;;18.27;13.63;;;;;;;;;;5005522;28;25054;-67
2024/02/14 03:56:19;;;;;;;20.60;13.73;;;;;;;;;;5009208;28;25081;-69
2024/02/14 03:58:47;;;;;;;22.90;13.50;;;;;;;;;;4984887;28;25074;-66
2024/02/14 04:01:13;;;;;;;17.65;13.80;;;;;;;;;;4993742;28;25135;-66
2024/02/14 04:03:40;;;;;;;17.95;11.73;;;;;;;;;;5004988;28;25152;-68
2024/02/14 04:06:06;;;;;;;20.17;12.93;;;;;;;;;;5009239;28;25068;-68
2024/02/14 04:08:33;;;;;;;18.75;13.75;;;;;;;;;;5004745;28;25148;-68
2024/02/14 04:10:59;;;;;;;20.25;13.52;;;;;;;;;;5009839;28;25130;-70
2024/02/14 04:13:25;;;;;;;18.73;14.00;;;;;;;;;;5009464;28;25057;-67
2024/02/14 04:15:51;;;;;;;17.70;14.23;;;;;;;;;;5002834;28;25070;-69
2024/02/14 04:18:18;;;;;;;21.42;15.35;;;;;;;;;;5007996;28;25103;-69
2024/02/14 04:20:44;;;;;;;24.48;16.60;;;;;;;;;;5011755;28;25076;-68
2024/02/14 04:23:10;;;;;;;22.55;15.48;;;;;;;;;;5009394;28;25093;-68
2024/02/14 04:25:37;;;;;;;16.17;14.45;;;;;;;;;;5010752;28;25069;-68
2024/02/14 04:28:06;;;;;;;25.55;14.63;;;;;;;;;;5017760;28;25082;-68
2024/02/14 04:30:33;;;;;;;18.73;13.90;;;;;;;;;;5024576;28;25052;-70
2024/02/14 04:32:59;;;;;;;18.85;13.80;;;;;;;;;;5025495;28;25126;-68
2024/02/14 04:35:25;;;;;;;24.63;15.13;;;;;;;;;;5019685;28;25070;-69
2024/02/14 04:37:52;;;;;;;20.10;14.15;;;;;;;;;;5015493;28;25084;-68
2024/02/14 04:40:18;;;;;;;19.00;13.60;;;;;;;;;;5013275;28;25094;-70
2024/02/14 04:42:45;;;;;;;21.88;16.63;;;;;;;;;;5008894;28;25046;-66
2024/02/14 04:45:11;;;;;;;20.83;16.02;;;;;;;;;;4993539;28;25055;-66
2024/02/14 04:47:37;;;;;;;21.63;15.57;;;;;;;;;;5007170;28;25073;-66
2024/02/14 04:50:04;;;;;;;20.25;14.50;;;;;;;;;;5005044;28;25061;-68
2024/02/14 04:52:30;;;;;;;22.98;15.95;;;;;;;;;;5010952;28;25047;-67
2024/02/14 04:54:56;;;;;;;22.67;16.17;;;;;;;;;;5002096;28;25109;-67
2024/02/14 04:57:22;;;;;;;22.00;17.23;;;;;;;;;;5004853;28;25071;-68
2024/02/14 04:59:49;;;;;;;20.35;16.38;;;;;;;;;;5008977;28;25101;-69
2024/02/14 05:02:15;;;;;;;24.58;16.75;;;;;;;;;;5001814;28;25099;-69
2024/02/14 05:04:41;;;;;;;21.92;19.48;;;;;;;;;;5004691;28;25167;-68
2024/02/14 05:07:07;;;;;;;19.48;17.48;;;;;;;;;;5001126;28;25082;-68
2024/02/14 05:09:33;;;;;;;23.65;19.33;;;;;;;;;;5004469;28;25099;-69
2024/02/14 05:11:59;;;;;;;25.27;18.58;;;;;;;;;;5007912;28;25073;-69
2024/02/14 05:14:30;;;;;;;24.48;21.23;;;;;;;;;;4996583;28;25069;-68
2024/02/14 05:16:56;;;;;;;31.45;24.42;;;;;;;;;;5004393;28;25070;-68
2024/02/14 05:19:22;;;;;;;29.77;22.75;;;;;;;;;;4988834;28;25083;-69
2024/02/14 05:21:50;;;;;;;35.25;26.45;;;;;;;;;;5006400;28;25158;-68
2024/02/14 05:24:16;;;;;;;24.63;21.95;;;;;;;;;;5000217;28;25130;-66
2024/02/14 05:26:42;;;;;;;30.95;25.05;;;;;;;;;;5008854;28;25156;-69
2024/02/14 05:29:08;;;;;;;33.97;25.65;;;;;;;;;;4984749;28;25071;-67
2024/02/14 05:31:44;;;;;;;34.33;28.67;;;;;;;;;;5007868;28;25058;-68
2024/02/14 05:34:10;;;;;;;35.40;25.13;;;;;;;;;;5003221;28;25049;-67
2024/02/14 05:36:36;;;;;;;30.77;23.65;;;;;;;;;;5002782;28;25056;-68
2024/02/14 05:39:03;;;;;;;32.92;25.05;;;;;;;;;;5003249;28;25079;-69
2024/02/14 05:41:30;;;;;;;34.25;26.75;;;;;;;;;;5003801;28;25162;-70
2024/02/14 05:43:56;;;;;;;31.73;24.63;;;;;;;;;;4991934;28;25059;-69
2024/02/14 05:46:22;;;;;;;35.15;24.85;;;;;;;;;;5002325;28;25077;-68
2024/02/14 05:48:48;;;;;;;28.20;25.17;;;;;;;;;;5004172;28;25068;-67
2024/02/14 05:51:14;;;;;;;34.78;27.08;;;;;;;;;;4980477;28;25076;-69
2024/02/14 05:53:40;;;;;;;30.30;25.63;;;;;;;;;;4997538;28;25091;-69
2024/02/14 05:56:07;;;;;;;36.40;27.58;;;;;;;;;;5003059;28;25078;-70
2024/02/14 05:58:33;;;;;;;36.25;28.83;;;;;;;;;;5002568;28;25055;-68
2024/02/14 06:00:59;;;;;;;36.63;28.05;;;;;;;;;;5003511;28;25082;-68
2024/02/14 06:03:25;;;;;;;35.70;27.52;;;;;;;;;;4984048;28;25167;-68
2024/02/14 06:05:51;;;;;;;34.70;27.63;;;;;;;;;;5000874;28;25092;-67
2024/02/14 06:08:17;;;;;;;34.72;28.48;;;;;;;;;;4998870;28;25082;-69
2024/02/14 06:10:43;;;;;;;33.80;28.58;;;;;;;;;;5007133;28;25079;-69
2024/02/14 06:13:09;;;;;;;31.27;27.90;;;;;;;;;;5006286;28;25052;-70
2024/02/14 06:15:35;;;;;;;32.17;27.02;;;;;;;;;;5006798;28;25061;-68
2024/02/14 06:18:01;;;;;;;39.13;28.23;;;;;;;;;;4987758;28;25075;-70
2024/02/14 06:20:27;;;;;;;31.55;25.70;;;;;;;;;;4998464;28;25062;-68
2024/02/14 06:22:54;;;;;;;37.15;26.15;;;;;;;;;;4999550;28;25072;-69
2024/02/14 06:25:20;;;;;;;31.33;25.00;;;;;;;;;;5007533;28;25083;-67
2024/02/14 06:27:47;;;;;;;31.92;25.77;;;;;;;;;;5007488;28;25150;-70
2024/02/14 06:30:13;;;;;;;34.58;27.17;;;;;;;;;;5000645;28;25130;-70
2024/02/14 06:32:39;;;;;;;36.42;25.08;;;;;;;;;;5004397;28;25166;-67
2024/02/14 06:35:05;;;;;;;28.70;24.20;;;;;;;;;;5006377;28;25073;-68
2024/02/14 06:37:31;;;;;;;34.53;23.50;;;;;;;;;;5004075;28;25058;-68
2024/02/14 06:39:57;;;;;;;28.38;24.02;;;;;;;;;;5002095;28;25046;-67
2024/02/14 06:42:23;;;;;;;37.45;25.83;;;;;;;;;;5000974;28;25085;-68
2024/02/14 06:44:49;;;;;;;37.17;27.25;;;;;;;;;;5009194;28;25004;-69
2024/02/14 06:47:15;;;;;;;32.55;24.13;;;;;;;;;;5011569;28;25118;-67
2024/02/14 06:49:41;;;;;;;39.42;26.77;;;;;;;;;;5001984;28;25083;-68
2024/02/14 06:52:09;;;;;;;32.70;26.65;;;;;;;;;;5021445;28;25053;-70
2024/02/14 06:54:35;;;;;;;33.95;26.55;;;;;;;;;;5022281;28;25075;-70
2024/02/14 06:57:01;;;;;;;44.28;26.58;;;;;;;;;;5019121;28;25078;-69
2024/02/14 06:59:27;;;;;;;34.03;28.05;;;;;;;;;;5010722;28;25057;-68
2024/02/14 07:01:54;;;;;;;35.95;28.48;;;;;;;;;;5007389;28;25102;-68
2024/02/14 07:04:25;;;;;;;32.70;25.80;;;;;;;;;;4989458;28;25056;-67
2024/02/14 07:06:51;;;;;;;27.08;24.33;;;;;;;;;;5002907;28;25051;-69
2024/02/14 07:09:17;;;;;;;38.17;27.50;;;;;;;;;;5005633;28;25056;-70
2024/02/14 07:11:45;;;;;;;36.72;28.42;;;;;;;;;;5002041;28;25070;-70
2024/02/14 07:14:11;;;;;;;36.83;28.13;;;;;;;;;;5003079;28;25119;-68
2024/02/14 07:16:37;;;;;;;40.15;30.42;;;;;;;;;;5002989;28;25082;-68
2024/02/14 07:19:03;;;;;;;35.63;27.23;;;;;;;;;;4993830;28;24824;-68
2024/02/14 07:21:30;;;;;;;40.63;29.13;;;;;;;;;;4995997;28;25114;-69
2024/02/14 07:23:55;;;;;;;44.00;33.40;;;;;;;;;;5001996;28;25095;-68
2024/02/14 07:26:21;;;;;;;45.47;33.30;;;;;;;;;;5002279;28;25105;-68
2024/02/14 07:28:47;;;;;;;41.65;32.50;;;;;;;;;;5005857;28;25063;-69
2024/02/14 07:31:14;;;;;;;55.20;33.45;;;;;;;;;;5005632;28;25071;-66
2024/02/14 07:33:40;;;;;;;42.10;31.75;;;;;;;;;;4987679;28;25056;-68
2024/02/14 07:36:06;;;;;;;40.03;27.73;;;;;;;;;;5004566;28;25060;-67
2024/02/14 07:38:32;;;;;;;39.17;29.70;;;;;;;;;;5002538;28;25159;-69
2024/02/14 07:40:58;;;;;;;44.13;27.90;;;;;;;;;;5007631;28;25070;-68
2024/02/14 07:43:24;;;;;;;48.97;32.85;;;;;;;;;;5008309;28;25136;-68
2024/02/14 07:45:50;;;;;;;47.95;32.38;;;;;;;;;;5006972;28;25061;-68
2024/02/14 07:48:16;;;;;;;40.97;31.08;;;;;;;;;;5003646;28;25156;-68
2024/02/14 07:50:42;;;;;;;40.92;28.75;;;;;;;;;;4990759;28;25083;-68
2024/02/14 07:53:08;;;;;;;47.15;29.83;;;;;;;;;;5004262;28;25108;-69
2024/02/14 07:55:34;;;;;;;49.40;32.28;;;;;;;;;;5007317;28;25101;-67
2024/02/14 07:58:00;;;;;;;43.05;30.65;;;;;;;;;;5004920;28;25063;-69
2024/02/14 08:00:26;;;;;;;41.75;30.98;;;;;;;;;;5006471;28;25160;-68
2024/02/14 08:02:52;;;;;;;41.40;26.90;;;;;;;;;;5000578;28;25165;-71
2024/02/14 08:05:19;;;;;;;42.00;28.83;;;;;;;;;;5009810;28;25067;-69
2024/02/14 08:07:46;;;;;;;45.75;32.33;;;;;;;;;;5007397;28;25071;-68
2024/02/14 08:10:12;;;;;;;47.58;32.05;;;;;;;;;;5002488;28;25071;-69
2024/02/14 08:12:38;;;;;;;46.13;32.35;;;;;;;;;;5004905;28;25060;-69
2024/02/14 08:15:06;;;;;;;37.05;28.15;;;;;;;;;;5007046;28;25084;-68
2024/02/14 08:17:33;;;;;;;34.03;26.90;;;;;;;;;;5005289;28;25106;-71
2024/02/14 08:20:00;;;;;;;42.78;29.30;;;;;;;;;;5004547;28;25147;-69
2024/02/14 08:22:27;;;;;;;35.60;29.15;;;;;;;;;;5011096;28;25090;-70
2024/02/14 08:24:53;;;;;;;40.25;28.52;;;;;;;;;;5008753;28;25054;-68
2024/02/14 08:27:19;;;;;;;40.10;29.02;;;;;;;;;;5005630;28;25122;-72
2024/02/14 08:29:45;;;;;;;42.17;29.88;;;;;;;;;;5004308;28;25123;-68
2024/02/14 08:32:11;;;;;;;41.30;30.08;;;;;;;;;;5002062;28;25060;-69
2024/02/14 08:34:37;;;;;;;38.97;30.80;;;;;;;;;;5004808;28;25067;-69
2024/02/14 08:37:03;;;;;;;43.28;30.45;;;;;;;;;;4984816;28;25070;-70
2024/02/14 08:39:29;;;;;;;38.20;26.92;;;;;;;;;;5002168;28;25089;-69
2024/02/14 08:41:55;;;;;;;33.63;24.67;;;;;;;;;;5006750;28;25070;-70
2024/02/14 08:44:21;;;;;;;33.97;25.27;;;;;;;;;;5006820;28;25192;-69
2024/02/14 08:46:49;;;;;;;31.33;24.75;;;;;;;;;;5010166;28;25089;-68
2024/02/14 08:49:15;;;;;;;33.40;23.70;;;;;;;;;;5009685;28;25151;-69
2024/02/14 08:51:43;;;;;;;31.67;22.13;;;;;;;;;;4999450;28;25073;-70
2024/02/14 08:54:10;;;;;;;33.72;22.33;;;;;;;;;;5003989;28;25055;-68
2024/02/14 08:56:37;;;;;;;32.72;20.95;;;;;;;;;;5005961;28;25086;-72
2024/02/14 08:59:04;;;;;;;34.17;23.20;;;;;;;;;;5015243;28;25078;-69
2024/02/14 09:01:30;;;;;;;31.27;20.70;;;;;;;;;;5015009;28;25059;-69
2024/02/14 09:03:56;;;;;;;33.60;21.88;;;;;;;;;;4998230;28;25063;-71
2024/02/14 09:06:23;;;;;;;31.00;22.10;;;;;;;;;;4993974;28;25075;-69
2024/02/14 09:08:52;;;;;;;25.63;20.27;;;;;;;;;;5013148;28;25075;-69
2024/02/14 09:11:19;;;;;;;32.13;23.35;;;;;;;;;;5028049;28;25076;-70
2024/02/14 09:13:47;;;;;;;34.58;22.63;;;;;;;;;;5020205;28;25081;-70
2024/02/14 09:16:15;;;;;;;33.20;21.95;;;;;;;;;;5027748;28;25061;-68
2024/02/14 09:18:42;;;;;;;26.67;20.27;;;;;;;;;;5014816;28;25060;-69
2024/02/14 09:21:08;;;;;;;30.45;22.58;;;;;;;;;;5011881;28;25083;-69
2024/02/14 09:23:34;;;;;;;34.90;25.08;;;;;;;;;;5013817;28;25085;-71
2024/02/14 09:26:01;;;;;;;30.55;22.58;;;;;;;;;;5008962;28;25127;-69
2024/02/14 09:28:27;;;;;;;30.48;22.30;;;;;;;;;;5002891;28;25054;-69
2024/02/14 09:30:54;;;;;;;28.63;23.67;;;;;;;;;;5009235;28;25103;-70
2024/02/14 09:33:20;;;;;;;37.30;24.80;;;;;;;;;;5004105;28;25057;-71
2024/02/14 09:35:47;;;;;;;30.40;21.80;;;;;;;;;;5001945;28;25065;-68
2024/02/14 09:38:14;;;;;;;29.65;21.90;;;;;;;;;;5007418;28;25022;-67
2024/02/14 09:40:43;;;;;;;24.00;20.50;;;;;;;;;;5006964;28;25055;-71
2024/02/14 09:43:25;;;;;;;24.85;20.35;;;;;;;;;;5005667;28;25064;-69
2024/02/14 09:45:52;;;;;;;26.98;20.70;;;;;;;;;;5000086;28;25138;-68
2024/02/14 09:48:20;;;;;;;23.67;18.67;;;;;;;;;;5006168;28;25045;-70
2024/02/14 09:50:48;;;;;;;23.50;16.48;;;;;;;;;;5006572;28;25120;-67
2024/02/14 09:53:15;;;;;;;21.55;16.20;;;;;;;;;;5007605;28;26214;-67
2024/02/14 09:55:42;;;;;;;23.77;17.55;;;;;;;;;;5008582;28;25074;-68
2024/02/14 09:58:08;;;;;;;24.45;16.33;;;;;;;;;;4995562;28;25082;-67
2024/02/14 10:00:35;;;;;;;20.67;15.88;;;;;;;;;;5007360;28;25062;-68
2024/02/14 10:03:01;;;;;;;25.77;17.25;;;;;;;;;;5000771;28;25140;-69
2024/02/14 10:05:27;;;;;;;26.10;17.10;;;;;;;;;;5005146;28;25054;-66
2024/02/14 10:07:57;;;;;;;20.02;16.02;;;;;;;;;;5004766;28;25091;-66
2024/02/14 10:10:23;;;;;;;21.90;18.48;;;;;;;;;;4984551;28;25057;-67
2024/02/14 10:12:49;;;;;;;24.10;18.55;;;;;;;;;;5002058;28;25122;-68
2024/02/14 10:15:15;;;;;;;27.20;19.80;;;;;;;;;;5006564;28;25136;-65
2024/02/14 10:17:41;;;;;;;24.63;19.02;;;;;;;;;;5000575;28;25061;-66
2024/02/14 10:20:08;;;;;;;22.17;18.23;;;;;;;;;;5001565;28;25062;-65
2024/02/14 10:22:37;;;;;;;19.30;17.35;;;;;;;;;;5003208;28;25055;-65
2024/02/14 10:25:04;;;;;;;24.27;19.13;;;;;;;;;;5004651;28;25061;-66
2024/02/14 10:27:33;;;;;;;28.38;19.23;;;;;;;;;;5000085;28;25067;-67
2024/02/14 10:30:00;;;;;;;26.98;19.15;;;;;;;;;;5002121;28;25057;-67
2024/02/14 10:32:26;;;;;;;22.13;18.00;;;;;;;;;;4999041;28;25067;-68
2024/02/14 10:34:52;;;;;;;23.65;19.70;;;;;;;;;;5001163;28;25053;-65
2024/02/14 10:37:18;;;;;;;26.42;19.00;;;;;;;;;;4984621;28;25116;-67
2024/02/14 10:39:47;;;;;;;23.35;18.73;;;;;;;;;;5004701;28;25106;-66
2024/02/14 10:42:13;;;;;;;24.70;18.48;;;;;;;;;;4998823;28;25100;-65
2024/02/14 10:44:39;;;;;;;24.73;18.08;;;;;;;;;;5004263;28;25155;-64
2024/02/14 10:47:07;;;;;;;26.90;18.90;;;;;;;;;;4985620;28;25103;-66
2024/02/14 10:49:33;;;;;;;23.33;18.88;;;;;;;;;;4999963;28;25150;-67
2024/02/14 10:52:02;;;;;;;24.33;18.15;;;;;;;;;;4986852;28;25073;-67
2024/02/14 10:54:28;;;;;;;25.25;17.83;;;;;;;;;;4998754;28;25073;-67
2024/02/14 10:56:57;;;;;;;23.88;18.75;;;;;;;;;;4998920;28;25082;-67
2024/02/14 10:59:24;;;;;;;20.35;17.10;;;;;;;;;;5007636;28;25132;-66
2024/02/14 11:01:51;;;;;;;24.25;17.02;;;;;;;;;;4998596;28;25126;-68
2024/02/14 11:04:18;;;;;;;23.40;19.50;;;;;;;;;;4999898;28;25127;-66
2024/02/14 11:06:48;;;;;;;25.38;19.08;;;;;;;;;;5007068;28;25096;-65
2024/02/14 11:09:17;;;;;;;27.38;19.30;;;;;;;;;;5001973;28;25078;-67
2024/02/14 11:11:44;;;;;;;27.90;20.10;;;;;;;;;;5002003;28;25072;-67
2024/02/14 11:14:12;;;;;;;31.00;20.48;;;;;;;;;;5008671;28;25070;-67
2024/02/14 11:16:38;;;;;;;37.38;20.67;;;;;;;;;;5009194;28;25065;-66
2024/02/14 11:19:13;;;;;;;23.02;19.20;;;;;;;;;;5010570;28;25085;-66
2024/02/14 11:21:42;;;;;;;25.33;20.80;;;;;;;;;;5003459;28;25075;-66
2024/02/14 11:24:10;;;;;;;21.60;18.08;;;;;;;;;;5009518;28;25083;-66
2024/02/14 11:26:40;;;;;;;21.40;18.20;;;;;;;;;;5009282;28;25055;-67
2024/02/14 11:29:07;;;;;;;20.75;16.98;;;;;;;;;;5017408;28;25079;-66
2024/02/14 11:31:37;;;;;;;23.45;17.98;;;;;;;;;;5019103;28;25060;-67
2024/02/14 11:34:04;;;;;;;23.08;18.60;;;;;;;;;;5021164;28;25041;-68
2024/02/14 11:36:31;;;;;;;17.85;16.05;;;;;;;;;;5020819;28;25070;-67
2024/02/14 11:38:57;;;;;;;17.77;15.88;;;;;;;;;;5019971;28;25097;-66
2024/02/14 11:41:23;;;;;;;21.73;17.90;;;;;;;;;;5017189;28;25086;-67
2024/02/14 11:43:52;;;;;;;22.63;16.02;;;;;;;;;;5004371;28;25065;-67
2024/02/14 11:46:18;;;;;;;26.00;19.25;;;;;;;;;;5005831;28;25181;-67
2024/02/14 11:48:45;;;;;;;22.85;19.88;;;;;;;;;;5003884;28;25158;-67
2024/02/14 11:51:11;;;;;;;19.88;17.88;;;;;;;;;;4992930;28;25072;-66
2024/02/14 11:53:40;;;;;;;21.77;19.50;;;;;;;;;;5008221;28;25071;-66
2024/02/14 11:56:06;;;;;;;24.38;21.48;;;;;;;;;;5006697;28;24827;-67
2024/02/14 11:58:34;;;;;;;24.50;20.75;;;;;;;;;;5001551;28;25046;-68
2024/02/14 12:01:07;;;;;;;25.83;20.45;;;;;;;;;;5003264;28;25057;-67
2024/02/14 12:03:35;;;;;;;27.40;21.77;;;;;;;;;;5001910;28;26177;-68
2024/02/14 12:06:02;;;;;;;25.77;21.52;;;;;;;;;;5001248;28;25053;-67
2024/02/14 12:08:28;;;;;;;24.80;19.75;;;;;;;;;;5003512;28;25076;-68
2024/02/14 12:10:54;;;;;;;23.42;19.13;;;;;;;;;;5002908;28;25055;-68
2024/02/14 12:13:21;;;;;;;23.60;18.77;;;;;;;;;;5005060;28;25069;-69
2024/02/14 12:15:47;;;;;;;25.20;20.85;;;;;;;;;;5005640;28;25101;-69
2024/02/14 12:18:14;;;;;;;25.30;18.25;;;;;;;;;;5011117;28;25097;-69
2024/02/14 12:20:40;;;;;;;17.15;15.35;;;;;;;;;;5008643;28;25078;-68
2024/02/14 12:23:06;;;;;;;18.55;16.58;;;;;;;;;;5010044;28;25085;-70
2024/02/14 12:25:33;;;;;;;18.85;16.95;;;;;;;;;;5004448;28;25146;-69
2024/02/14 12:28:00;;;;;;;19.33;16.30;;;;;;;;;;5009898;28;25106;-69
2024/02/14 12:30:48;;;;;;;18.77;16.58;;;;;;;;;;5004394;28;25064;-68
2024/02/14 12:33:15;;;;;;;16.48;14.68;;;;;;;;;;5005018;28;25050;-67
2024/02/14 12:35:43;;;;;;;18.02;16.25;;;;;;;;;;5003895;28;25061;-69
2024/02/14 12:38:09;;;;;;;16.73;15.05;;;;;;;;;;5002549;28;25065;-68
2024/02/14 12:40:36;;;;;;;17.30;15.30;;;;;;;;;;5005992;28;25052;-69
2024/02/14 12:43:02;;;;;;;15.82;14.20;;;;;;;;;;5003807;28;25055;-68
2024/02/14 12:45:28;;;;;;;18.33;15.70;;;;;;;;;;4991605;28;25144;-69
2024/02/14 12:47:54;;;;;;;20.83;17.95;;;;;;;;;;5006099;28;25098;-71
2024/02/14 12:50:20;;;;;;;18.67;16.75;;;;;;;;;;4991396;28;25055;-68
2024/02/14 12:52:46;;;;;;;19.30;17.33;;;;;;;;;;5007928;28;25060;-69
2024/02/14 12:55:13;;;;;;;18.38;16.58;;;;;;;;;;4986748;28;25067;-65
2024/02/14 12:57:40;;;;;;;17.85;16.15;;;;;;;;;;5006028;28;25088;-69
2024/02/14 13:00:08;;;;;;;16.45;14.85;;;;;;;;;;5006818;28;25047;-68
2024/02/14 13:02:34;;;;;;;19.17;17.13;;;;;;;;;;5000437;28;25060;-67
2024/02/14 13:05:01;;;;;;;18.98;16.90;;;;;;;;;;5005512;28;25148;-68
2024/02/14 13:07:28;;;;;;;18.23;16.27;;;;;;;;;;5006599;28;25039;-69
2024/02/14 13:09:54;;;;;;;17.73;15.98;;;;;;;;;;5004445;28;25065;-68
2024/02/14 13:12:21;;;;;;;16.45;14.93;;;;;;;;;;5006762;28;25058;-70
2024/02/14 13:14:47;;;;;;;15.98;14.40;;;;;;;;;;5005150;28;25074;-68
2024/02/14 13:17:13;;;;;;;17.90;16.10;;;;;;;;;;5010400;28;25082;-66
2024/02/14 13:19:40;;;;;;;17.73;15.95;;;;;;;;;;5007045;28;25089;-67
2024/02/14 13:22:06;;;;;;;18.63;14.93;;;;;;;;;;5007607;28;25136;-67
2024/02/14 13:24:32;;;;;;;15.48;13.95;;;;;;;;;;5004272;28;25066;-68
2024/02/14 13:26:58;;;;;;;16.05;14.40;;;;;;;;;;5004839;28;25057;-68
2024/02/14 13:29:24;;;;;;;14.13;12.82;;;;;;;;;;5006901;28;25078;-65
2024/02/14 13:31:51;;;;;;;15.43;13.88;;;;;;;;;;5007173;28;25083;-67
2024/02/14 13:34:19;;;;;;;15.75;14.15;;;;;;;;;;5011046;28;25149;-69
2024/02/14 13:36:45;;;;;;;15.98;14.40;;;;;;;;;;5006415;28;25082;-69
2024/02/14 13:39:12;;;;;;;14.15;12.70;;;;;;;;;;4994012;28;25070;-68
2024/02/14 13:41:38;;;;;;;15.18;13.50;;;;;;;;;;5014467;28;25070;-70
2024/02/14 13:44:10;;;;;;;13.68;12.38;;;;;;;;;;5007739;28;25084;-68
2024/02/14 13:46:37;;;;;;;16.83;13.98;;;;;;;;;;5012501;28;25062;-69
2024/02/14 13:49:03;;;;;;;13.65;12.35;;;;;;;;;;5009102;28;25061;-67
2024/02/14 13:51:29;;;;;;;15.23;13.43;;;;;;;;;;5002446;28;25073;-67
2024/02/14 13:53:55;;;;;;;13.05;11.77;;;;;;;;;;5025207;28;25072;-66
2024/02/14 13:56:22;;;;;;;17.20;12.43;;;;;;;;;;5025715;28;25099;-67
2024/02/14 13:58:49;;;;;;;16.92;13.65;;;;;;;;;;5023317;28;25062;-67
2024/02/14 14:01:15;;;;;;;13.82;12.43;;;;;;;;;;5019777;28;25051;-68
2024/02/14 14:03:41;;;;;;;14.32;12.82;;;;;;;;;;5010233;28;25054;-68
2024/02/14 14:06:08;;;;;;;17.48;13.02;;;;;;;;;;5011249;28;25078;-69
2024/02/14 14:08:37;;;;;;;15.70;12.27;;;;;;;;;;5009610;28;25058;-68
2024/02/14 14:11:03;;;;;;;16.90;12.75;;;;;;;;;;5007348;28;25106;-68
2024/02/14 14:13:30;;;;;;;11.70;10.50;;;;;;;;;;5007144;28;25058;-69